createdAt,value
2023-05-10T00:04:32.944Z,0.62
2023-05-10T00:09:42.380Z,0.65
2023-05-10T00:14:51.975Z,0.69
2023-05-10T00:20:00.914Z,0.71
2023-05-10T00:25:11.340Z,0.72
2023-05-10T00:30:20.498Z,0.76
2023-05-10T00:35:30.056Z,0.74
2023-05-10T00:40:39.114Z,0.77
2023-05-10T00:45:48.445Z,0.74
2023-05-10T00:50:57.295Z,0.87
2023-05-10T00:56:06.919Z,0.85
2023-05-10T01:01:16.092Z,0.88
2023-05-10T01:06:24.910Z,0.92
2023-05-10T01:11:34.086Z,0.88
2023-05-10T01:16:43.032Z,0.91
2023-05-10T01:21:53.440Z,0.96
2023-05-10T01:27:02.628Z,0.93
2023-05-10T01:32:11.461Z,0.98
2023-05-10T01:37:20.471Z,1.03
2023-05-10T02:34:01.840Z,0.64
2023-05-10T02:39:11.117Z,0.61
2023-05-10T02:44:19.818Z,0.63
2023-05-10T02:49:28.946Z,0.64
2023-05-10T02:54:38.449Z,0.64
2023-05-10T02:59:47.772Z,0.62
2023-05-10T03:04:57.178Z,0.64
2023-05-10T03:10:06.060Z,0.67
2023-05-10T03:15:16.317Z,0.67
2023-05-10T03:22:29.991Z,0.66
2023-05-10T03:27:46.136Z,0.7
2023-05-10T03:33:02.241Z,0.73
2023-05-10T03:38:17.856Z,0.76
2023-05-10T03:43:34.735Z,0.84
2023-05-10T03:48:44.343Z,1.05
2023-05-10T03:54:00.481Z,1.13
2023-05-10T03:59:16.636Z,1.31
2023-05-10T04:04:32.914Z,1.51
2023-05-10T04:09:50.306Z,1.4
2023-05-10T04:15:06.580Z,1.55
2023-05-10T04:20:28.388Z,1.26
2023-05-10T04:25:43.881Z,1.64
2023-05-10T04:31:00.092Z,1.31
2023-05-10T04:36:15.603Z,1.31
2023-05-10T04:41:30.860Z,1.15
2023-05-10T04:46:47.583Z,1.13
2023-05-10T04:52:02.807Z,1.44
2023-05-10T04:57:20.012Z,1.47
2023-05-10T05:02:37.935Z,1.89
2023-05-10T05:07:56.837Z,2.31
2023-05-10T05:13:13.268Z,2.45
2023-05-10T05:18:30.165Z,2.48
2023-05-10T05:23:46.552Z,2.55
2023-05-10T05:29:03.822Z,2.67
2023-05-10T05:34:20.457Z,2.32
2023-05-10T05:39:36.477Z,2.42
2023-05-10T05:44:52.653Z,2.83
2023-05-10T05:50:10.133Z,2.7
2023-05-10T05:55:26.360Z,3.06
2023-05-10T06:00:43.668Z,2.88
2023-05-10T06:05:59.222Z,3.2
2023-05-10T06:11:16.700Z,2.55
2023-05-10T06:16:34.452Z,3.14
2023-05-10T06:21:54.177Z,2.54
2023-05-10T06:27:08.486Z,3.6
2023-05-10T06:32:23.941Z,3.08
2023-05-10T06:37:40.136Z,2.59
2023-05-10T06:42:57.607Z,2.73
2023-05-10T06:48:15.592Z,3.06
2023-05-10T06:53:31.145Z,3
2023-05-10T06:58:50.433Z,3
2023-05-10T07:04:06.886Z,3.13
2023-05-10T07:09:23.843Z,2.91
2023-05-10T07:14:40.964Z,3.15
2023-05-10T07:19:59.395Z,2.46
2023-05-10T07:25:16.651Z,2.28
2023-05-10T07:30:32.603Z,2.94
2023-05-10T07:35:48.070Z,2.63
2023-05-10T07:41:05.504Z,2.3
2023-05-10T07:46:22.329Z,2.46
2023-05-10T07:51:38.220Z,1.64
2023-05-10T07:56:58.483Z,2.91
2023-05-10T08:02:15.818Z,2.61
2023-05-10T08:07:33.394Z,2.21
2023-05-10T08:12:50.731Z,2.65
2023-05-10T08:18:10.584Z,2.91
2023-05-10T08:23:27.092Z,2.56
2023-05-10T08:28:42.909Z,2.83
2023-05-10T08:33:59.204Z,2.54
2023-05-10T08:39:31.174Z,2.49
2023-05-10T08:44:35.101Z,2.77
2023-05-10T08:49:53.372Z,4.11
2023-05-10T08:55:09.372Z,2.67
2023-05-10T09:00:26.452Z,2.24
2023-05-10T09:05:43.347Z,2.43
2023-05-10T09:11:02.948Z,2.4
2023-05-10T09:16:22.887Z,2.3
2023-05-10T09:21:38.150Z,2.61
2023-05-10T09:26:54.113Z,2.77
2023-05-10T09:32:11.197Z,2.07
2023-05-10T09:37:27.228Z,2.07
2023-05-10T09:42:43.410Z,1.92
2023-05-10T09:47:59.231Z,1.91
2023-05-10T09:53:17.011Z,1.64
2023-05-10T09:58:34.377Z,1.43
2023-05-10T10:03:52.231Z,1.3
2023-05-10T10:09:09.326Z,1.15
2023-05-10T10:14:25.290Z,1.08
2023-05-10T10:19:41.594Z,1.16
2023-05-10T10:24:58.572Z,1.09
2023-05-10T10:30:16.086Z,1.1
2023-05-10T10:35:35.116Z,1.27
2023-05-10T10:40:52.634Z,1.24
2023-05-10T10:46:08.771Z,1.21
2023-05-10T10:51:26.233Z,1.07
2023-05-10T10:56:43.907Z,1.36
2023-05-10T11:02:01.234Z,1.49
2023-05-10T11:07:18.113Z,2.02
2023-05-10T11:12:34.799Z,1.3
2023-05-10T11:17:53.551Z,1.52
2023-05-10T11:23:09.519Z,1.27
2023-05-10T11:28:25.668Z,1.5
2023-05-10T11:33:45.270Z,1.13
2023-05-10T11:39:02.150Z,1.87
2023-05-10T11:44:21.565Z,1.49
2023-05-10T11:49:39.432Z,1.29
2023-05-10T11:54:55.199Z,1.66
2023-05-10T12:00:11.155Z,1.44
2023-05-10T12:05:26.958Z,1.67
2023-05-10T12:10:42.716Z,1.38
2023-05-10T12:15:58.243Z,1.22
2023-05-10T12:21:14.472Z,1.45
2023-05-10T12:47:44.603Z,1.39
2023-05-10T12:52:54.260Z,1.2
2023-05-10T12:58:09.516Z,1.25
2023-05-10T13:03:26.935Z,1.01
2023-05-10T13:08:42.834Z,1.22
2023-05-10T13:13:59.208Z,1.19
2023-05-10T13:19:16.555Z,1.22
2023-05-10T13:24:32.322Z,1.19
2023-05-10T13:29:49.683Z,1.3
2023-05-10T13:35:06.925Z,1.32
2023-05-10T13:40:23.243Z,1.23
2023-05-10T13:45:39.509Z,1.21
2023-05-10T13:50:55.258Z,1.19
2023-05-10T13:56:12.204Z,1.26
2023-05-10T14:01:28.194Z,1.28
2023-05-10T14:06:44.174Z,1.13
2023-05-10T14:12:00.528Z,1.13
2023-05-10T14:17:16.140Z,0.99
2023-05-10T14:22:31.766Z,0.89
2023-05-10T14:27:48.086Z,0.9
2023-05-10T14:33:06.047Z,0.94
2023-05-10T14:38:21.936Z,0.92
2023-05-10T14:43:39.198Z,0.89
2023-05-10T14:48:55.045Z,1.02
2023-05-10T14:54:11.053Z,1.09
2023-05-10T14:59:28.822Z,0.97
2023-05-10T15:04:44.590Z,0.79
2023-05-10T15:09:58.372Z,0.85
2023-05-10T15:15:16.243Z,0.81
2023-05-10T15:20:30.998Z,0.81
2023-05-10T15:25:48.749Z,0.95
2023-05-10T15:31:04.287Z,0.89
2023-05-10T15:36:20.567Z,0.86
2023-05-10T15:41:37.778Z,0.91
2023-05-10T15:46:55.163Z,0.91
2023-05-10T16:29:11.939Z,1.03
2023-05-10T16:34:21.852Z,1.06
2023-05-10T16:39:39.718Z,1.01
2023-05-10T16:44:55.092Z,1.04
2023-05-10T16:50:11.475Z,1.1
2023-05-10T16:55:27.610Z,1.13
2023-05-10T17:00:44.246Z,1.22
2023-05-10T17:06:00.299Z,1.14
2023-05-10T17:11:16.491Z,1.19
2023-05-10T17:16:33.184Z,1.09
2023-05-10T17:21:49.061Z,1.17
2023-05-10T17:27:06.267Z,1.24
2023-05-10T17:32:23.039Z,1.21
2023-05-10T18:40:58.037Z,1.92
2023-05-10T18:46:14.088Z,2.17
2023-05-10T18:51:29.533Z,1.91
2023-05-10T18:56:46.387Z,1.78
2023-05-10T19:02:03.986Z,2.5
2023-05-10T19:07:21.161Z,2.27
2023-05-10T19:12:37.120Z,2.13
2023-05-10T19:17:53.383Z,2.37
2023-05-10T19:23:10.706Z,1.93
2023-05-10T19:28:26.042Z,2.02
2023-05-10T20:10:46.058Z,1.45
2023-05-10T20:15:55.704Z,1.45
2023-05-10T20:21:13.001Z,1.28
2023-05-10T20:26:29.357Z,1.14
2023-05-10T20:31:47.325Z,1.28
2023-05-10T20:37:03.332Z,1.13
2023-05-10T20:42:19.506Z,1.18
2023-05-10T20:47:36.801Z,1.18
2023-05-10T20:52:51.778Z,1.2
2023-05-10T20:58:11.019Z,1.34
2023-05-10T21:03:27.997Z,1.4
2023-05-10T21:08:45.057Z,1.64
2023-05-10T21:14:01.585Z,1.58
2023-05-10T21:19:18.308Z,1.65
2023-05-10T21:24:34.466Z,1.61
2023-05-10T21:29:52.469Z,1.43
2023-05-10T21:35:08.875Z,1.8
2023-05-10T21:40:25.428Z,1.76
2023-05-10T21:45:41.962Z,1.64
2023-05-10T21:50:58.389Z,1.9
2023-05-10T21:56:16.033Z,1.56
2023-05-10T22:01:31.393Z,1.89
2023-05-10T22:06:47.576Z,2.03
2023-05-10T22:12:03.917Z,1.93
2023-05-10T22:17:20.912Z,1.95
2023-05-10T22:22:38.296Z,2.32
2023-05-10T22:27:56.625Z,2.37
2023-05-10T22:33:12.592Z,2.21
2023-05-10T22:38:28.373Z,2.02
2023-05-10T22:43:45.697Z,2.4
2023-05-10T22:49:02.873Z,2.14
2023-05-10T22:54:19.041Z,1.79
2023-05-10T22:59:34.084Z,1.77
2023-05-10T23:04:51.269Z,1.98
2023-05-10T23:47:07.409Z,2.21
2023-05-10T23:52:16.982Z,2.11
2023-05-10T23:57:33.682Z,2.26
